sensor_id;sensor_type;location;lat;lon;timestamp;pressure;altitude;pressure_sealevel;temperature;humidity
17649;BME280;8943;51.110;-4.158;2022-08-19T00:01:56;100966.78;;;23.06;62.76
17649;BME280;8943;51.110;-4.158;2022-08-19T00:04:27;100961.69;;;23.03;63.13
17649;BME280;8943;51.110;-4.158;2022-08-19T00:06:57;100952.34;;;23.06;62.96
17649;BME280;8943;51.110;-4.158;2022-08-19T00:09:26;100971.56;;;23.04;62.95
17649;BME280;8943;51.110;-4.158;2022-08-19T00:11:56;100956.09;;;23.05;62.90
17649;BME280;8943;51.110;-4.158;2022-08-19T00:14:27;100953.38;;;23.05;63.02
17649;BME280;8943;51.110;-4.158;2022-08-19T00:16:59;100953.38;;;23.05;63.36
17649;BME280;8943;51.110;-4.158;2022-08-19T00:19:27;100950.66;;;23.05;62.90
17649;BME280;8943;51.110;-4.158;2022-08-19T00:21:56;100951.97;;;23.09;62.69
17649;BME280;8943;51.110;-4.158;2022-08-19T00:24:25;100954.59;;;23.02;62.77
17649;BME280;8943;51.110;-4.158;2022-08-19T00:26:55;100956.47;;;23.02;62.46
17649;BME280;8943;51.110;-4.158;2022-08-19T00:29:45;100958.91;;;22.97;62.67
17649;BME280;8943;51.110;-4.158;2022-08-19T00:32:18;100972.28;;;22.98;62.85
17649;BME280;8943;51.110;-4.158;2022-08-19T00:34:47;100968.72;;;22.98;62.56
17649;BME280;8943;51.110;-4.158;2022-08-19T00:37:15;100968.09;;;22.96;62.42
17649;BME280;8943;51.110;-4.158;2022-08-19T00:39:43;100969.56;;;22.98;62.49
17649;BME280;8943;51.110;-4.158;2022-08-19T00:42:14;100972.00;;;22.93;62.24
17649;BME280;8943;51.110;-4.158;2022-08-19T00:44:44;100972.22;;;22.92;62.15
17649;BME280;8943;51.110;-4.158;2022-08-19T00:47:13;100970.31;;;22.92;62.21
17649;BME280;8943;51.110;-4.158;2022-08-19T00:49:45;100968.34;;;22.86;62.23
17649;BME280;8943;51.110;-4.158;2022-08-19T00:52:20;100974.81;;;22.85;61.75
17649;BME280;8943;51.110;-4.158;2022-08-19T00:54:51;100972.72;;;22.87;61.86
17649;BME280;8943;51.110;-4.158;2022-08-19T00:57:25;100969.94;;;22.80;62.10
17649;BME280;8943;51.110;-4.158;2022-08-19T00:59:57;100972.44;;;22.82;61.63
17649;BME280;8943;51.110;-4.158;2022-08-19T01:02:30;100961.22;;;22.70;61.43
17649;BME280;8943;51.110;-4.158;2022-08-19T01:05:03;100959.22;;;22.64;61.47
17649;BME280;8943;51.110;-4.158;2022-08-19T01:07:33;100958.28;;;22.57;61.23
17649;BME280;8943;51.110;-4.158;2022-08-19T01:10:25;100966.34;;;22.50;61.69
17649;BME280;8943;51.110;-4.158;2022-08-19T01:13:01;100952.63;;;22.44;61.65
17649;BME280;8943;51.110;-4.158;2022-08-19T01:15:40;100950.41;;;22.47;61.53
17649;BME280;8943;51.110;-4.158;2022-08-19T01:18:12;100951.44;;;22.46;61.90
17649;BME280;8943;51.110;-4.158;2022-08-19T01:20:41;100945.47;;;22.51;61.73
17649;BME280;8943;51.110;-4.158;2022-08-19T01:23:13;100941.34;;;22.55;61.29
17649;BME280;8943;51.110;-4.158;2022-08-19T01:25:45;100945.81;;;22.48;61.15
17649;BME280;8943;51.110;-4.158;2022-08-19T01:28:22;100959.47;;;22.40;60.67
17649;BME280;8943;51.110;-4.158;2022-08-19T01:31:06;100962.28;;;22.31;60.14
17649;BME280;8943;51.110;-4.158;2022-08-19T01:33:38;100954.94;;;22.17;59.70
17649;BME280;8943;51.110;-4.158;2022-08-19T01:36:11;100958.19;;;22.13;59.33
17649;BME280;8943;51.110;-4.158;2022-08-19T01:38:43;100956.34;;;22.05;58.96
17649;BME280;8943;51.110;-4.158;2022-08-19T01:41:15;100960.09;;;22.04;59.26
17649;BME280;8943;51.110;-4.158;2022-08-19T01:43:47;100958.31;;;21.96;59.09
17649;BME280;8943;51.110;-4.158;2022-08-19T01:46:36;100971.69;;;21.98;58.87
17649;BME280;8943;51.110;-4.158;2022-08-19T01:49:05;100963.88;;;21.95;58.91
17649;BME280;8943;51.110;-4.158;2022-08-19T01:51:34;100964.56;;;21.97;58.77
17649;BME280;8943;51.110;-4.158;2022-08-19T01:54:07;100972.41;;;21.92;58.63
17649;BME280;8943;51.110;-4.158;2022-08-19T01:56:35;100960.81;;;21.98;58.56
17649;BME280;8943;51.110;-4.158;2022-08-19T01:59:08;100957.09;;;21.99;58.44
17649;BME280;8943;51.110;-4.158;2022-08-19T02:01:38;100960.81;;;21.98;58.17
17649;BME280;8943;51.110;-4.158;2022-08-19T02:04:06;100957.09;;;21.99;58.15
17649;BME280;8943;51.110;-4.158;2022-08-19T02:06:35;100960.00;;;21.97;58.20
17649;BME280;8943;51.110;-4.158;2022-08-19T02:09:05;100958.75;;;22.00;58.20
17649;BME280;8943;51.110;-4.158;2022-08-19T02:11:35;100949.03;;;22.05;58.04
17649;BME280;8943;51.110;-4.158;2022-08-19T02:14:07;100952.16;;;22.02;58.14
17649;BME280;8943;51.110;-4.158;2022-08-19T02:16:36;100945.88;;;22.02;57.74
17649;BME280;8943;51.110;-4.158;2022-08-19T02:19:06;100943.47;;;22.07;57.97
17649;BME280;8943;51.110;-4.158;2022-08-19T02:21:35;100946.63;;;22.10;57.60
17649;BME280;8943;51.110;-4.158;2022-08-19T02:24:04;100953.09;;;22.09;57.96
17649;BME280;8943;51.110;-4.158;2022-08-19T02:26:33;100951.75;;;22.05;57.59
17649;BME280;8943;51.110;-4.158;2022-08-19T02:29:10;100951.41;;;22.08;57.69
17649;BME280;8943;51.110;-4.158;2022-08-19T02:31:38;100954.47;;;22.05;57.65
17649;BME280;8943;51.110;-4.158;2022-08-19T02:34:07;100965.50;;;22.12;57.47
17649;BME280;8943;51.110;-4.158;2022-08-19T02:36:35;100961.63;;;22.06;57.53
17649;BME280;8943;51.110;-4.158;2022-08-19T02:39:08;100960.94;;;22.04;57.50
17649;BME280;8943;51.110;-4.158;2022-08-19T02:41:35;100977.75;;;22.00;57.42
17649;BME280;8943;51.110;-4.158;2022-08-19T02:44:05;100969.50;;;21.93;57.06
17649;BME280;8943;51.110;-4.158;2022-08-19T02:46:53;100968.28;;;21.96;57.01
17649;BME280;8943;51.110;-4.158;2022-08-19T02:49:22;100963.97;;;21.87;56.78
17649;BME280;8943;51.110;-4.158;2022-08-19T02:51:50;100966.06;;;21.76;55.88
17649;BME280;8943;51.110;-4.158;2022-08-19T02:54:19;100975.28;;;21.67;54.91
17649;BME280;8943;51.110;-4.158;2022-08-19T02:56:48;100979.72;;;21.60;54.25
17649;BME280;8943;51.110;-4.158;2022-08-19T02:59:17;100989.91;;;21.58;53.95
17649;BME280;8943;51.110;-4.158;2022-08-19T03:01:48;100978.06;;;21.51;53.41
17649;BME280;8943;51.110;-4.158;2022-08-19T03:04:17;100977.75;;;21.46;52.75
17649;BME280;8943;51.110;-4.158;2022-08-19T03:06:46;100978.13;;;21.43;52.11
17649;BME280;8943;51.110;-4.158;2022-08-19T03:09:15;100994.63;;;21.33;52.11
17649;BME280;8943;51.110;-4.158;2022-08-19T03:11:47;100992.91;;;21.32;52.10
17649;BME280;8943;51.110;-4.158;2022-08-19T03:14:20;100983.59;;;21.26;52.20
17649;BME280;8943;51.110;-4.158;2022-08-19T03:16:51;100989.19;;;21.25;52.10
17649;BME280;8943;51.110;-4.158;2022-08-19T03:19:20;100998.50;;;21.22;52.14
17649;BME280;8943;51.110;-4.158;2022-08-19T03:21:49;100995.47;;;21.17;52.15
17649;BME280;8943;51.110;-4.158;2022-08-19T03:24:19;100991.09;;;21.16;52.16
17649;BME280;8943;51.110;-4.158;2022-08-19T03:26:50;100995.84;;;21.14;52.18
17649;BME280;8943;51.110;-4.158;2022-08-19T03:29:23;100985.00;;;21.14;52.20
17649;BME280;8943;51.110;-4.158;2022-08-19T03:32:24;100988.56;;;21.15;52.29
17649;BME280;8943;51.110;-4.158;2022-08-19T03:34:59;100987.41;;;21.09;52.23
17649;BME280;8943;51.110;-4.158;2022-08-19T03:37:27;100993.50;;;21.03;52.26
17649;BME280;8943;51.110;-4.158;2022-08-19T03:39:59;100990.97;;;21.01;52.19
17649;BME280;8943;51.110;-4.158;2022-08-19T03:42:35;100993.34;;;20.96;52.31
17649;BME280;8943;51.110;-4.158;2022-08-19T03:45:19;100990.81;;;20.95;52.12
17649;BME280;8943;51.110;-4.158;2022-08-19T03:47:48;100995.59;;;20.85;52.08
17649;BME280;8943;51.110;-4.158;2022-08-19T03:50:19;100993.75;;;20.77;51.79
17649;BME280;8943;51.110;-4.158;2022-08-19T03:52:48;101000.69;;;20.71;51.74
17649;BME280;8943;51.110;-4.158;2022-08-19T03:55:39;101007.13;;;20.62;52.01
17649;BME280;8943;51.110;-4.158;2022-08-19T03:58:32;101008.66;;;20.56;52.10
17649;BME280;8943;51.110;-4.158;2022-08-19T04:01:07;101018.31;;;20.51;52.23
17649;BME280;8943;51.110;-4.158;2022-08-19T04:03:35;101024.06;;;20.48;52.36
17649;BME280;8943;51.110;-4.158;2022-08-19T04:06:10;101018.81;;;20.46;52.45
17649;BME280;8943;51.110;-4.158;2022-08-19T04:08:39;101027.78;;;20.47;52.30
17649;BME280;8943;51.110;-4.158;2022-08-19T04:11:09;101026.22;;;20.44;52.24
17649;BME280;8943;51.110;-4.158;2022-08-19T04:13:37;101016.09;;;20.38;52.31
17649;BME280;8943;51.110;-4.158;2022-08-19T04:16:07;101021.16;;;20.33;52.25
17649;BME280;8943;51.110;-4.158;2022-08-19T04:18:46;101021.84;;;20.27;52.21
17649;BME280;8943;51.110;-4.158;2022-08-19T04:21:18;101024.03;;;20.23;51.93
17649;BME280;8943;51.110;-4.158;2022-08-19T04:23:48;101027.41;;;20.17;52.15
17649;BME280;8943;51.110;-4.158;2022-08-19T04:26:19;101021.66;;;20.12;51.89
17649;BME280;8943;51.110;-4.158;2022-08-19T04:28:48;101027.75;;;20.06;51.99
17649;BME280;8943;51.110;-4.158;2022-08-19T04:31:21;101032.13;;;19.99;51.95
17649;BME280;8943;51.110;-4.158;2022-08-19T04:33:52;101032.63;;;19.94;51.81
17649;BME280;8943;51.110;-4.158;2022-08-19T04:36:25;101031.94;;;19.92;51.78
17649;BME280;8943;51.110;-4.158;2022-08-19T04:38:55;101038.00;;;19.86;51.64
17649;BME280;8943;51.110;-4.158;2022-08-19T04:41:27;101036.97;;;19.79;51.79
17649;BME280;8943;51.110;-4.158;2022-08-19T04:44:13;101040.00;;;19.68;51.68
17649;BME280;8943;51.110;-4.158;2022-08-19T04:46:47;101050.13;;;19.66;51.86
17649;BME280;8943;51.110;-4.158;2022-08-19T04:49:19;101049.06;;;19.59;51.82
17649;BME280;8943;51.110;-4.158;2022-08-19T04:52:06;101055.63;;;19.56;51.83
17649;BME280;8943;51.110;-4.158;2022-08-19T04:54:43;101056.28;;;19.50;51.74
17649;BME280;8943;51.110;-4.158;2022-08-19T04:57:12;101053.22;;;19.45;51.77
17649;BME280;8943;51.110;-4.158;2022-08-19T04:59:40;101050.81;;;19.34;51.82
17649;BME280;8943;51.110;-4.158;2022-08-19T05:02:10;101054.47;;;19.24;51.70
17649;BME280;8943;51.110;-4.158;2022-08-19T05:04:38;101054.41;;;19.08;51.51
17649;BME280;8943;51.110;-4.158;2022-08-19T05:07:07;101052.28;;;18.94;51.93
17649;BME280;8943;51.110;-4.158;2022-08-19T05:09:36;101048.13;;;18.82;52.15
17649;BME280;8943;51.110;-4.158;2022-08-19T05:12:24;101047.41;;;18.71;52.44
17649;BME280;8943;51.110;-4.158;2022-08-19T05:14:55;101052.38;;;18.66;52.46
17649;BME280;8943;51.110;-4.158;2022-08-19T05:17:26;101061.72;;;18.54;52.66
17649;BME280;8943;51.110;-4.158;2022-08-19T05:20:00;101060.97;;;18.44;52.70
17649;BME280;8943;51.110;-4.158;2022-08-19T05:22:46;101048.91;;;18.30;52.97
17649;BME280;8943;51.110;-4.158;2022-08-19T05:25:18;101052.34;;;18.22;53.30
17649;BME280;8943;51.110;-4.158;2022-08-19T05:27:48;101055.28;;;18.11;53.18
17649;BME280;8943;51.110;-4.158;2022-08-19T05:30:17;101061.16;;;18.07;53.41
17649;BME280;8943;51.110;-4.158;2022-08-19T05:33:07;101065.88;;;17.95;53.42
17649;BME280;8943;51.110;-4.158;2022-08-19T05:35:37;101072.75;;;17.89;53.67
17649;BME280;8943;51.110;-4.158;2022-08-19T05:38:06;101077.34;;;17.79;53.79
17649;BME280;8943;51.110;-4.158;2022-08-19T05:40:35;101077.06;;;17.72;53.63
17649;BME280;8943;51.110;-4.158;2022-08-19T05:43:04;101079.38;;;17.67;54.14
17649;BME280;8943;51.110;-4.158;2022-08-19T05:45:39;101086.34;;;17.60;54.34
17649;BME280;8943;51.110;-4.158;2022-08-19T05:48:11;101086.78;;;17.56;54.53
17649;BME280;8943;51.110;-4.158;2022-08-19T05:50:40;101093.63;;;17.50;54.46
17649;BME280;8943;51.110;-4.158;2022-08-19T05:53:09;101091.09;;;17.48;54.88
17649;BME280;8943;51.110;-4.158;2022-08-19T05:55:37;101083.69;;;17.50;54.95
17649;BME280;8943;51.110;-4.158;2022-08-19T05:58:06;101085.16;;;17.45;55.33
17649;BME280;8943;51.110;-4.158;2022-08-19T06:00:34;101093.91;;;17.47;55.06
17649;BME280;8943;51.110;-4.158;2022-08-19T06:03:04;101091.94;;;17.49;55.52
17649;BME280;8943;51.110;-4.158;2022-08-19T06:05:40;101103.56;;;17.49;55.39
17649;BME280;8943;51.110;-4.158;2022-08-19T06:08:17;101098.72;;;17.53;55.43
17649;BME280;8943;51.110;-4.158;2022-08-19T06:11:12;101100.59;;;17.53;55.61
17649;BME280;8943;51.110;-4.158;2022-08-19T06:13:41;101103.13;;;17.54;55.59
17649;BME280;8943;51.110;-4.158;2022-08-19T06:16:10;101093.88;;;17.57;55.52
17649;BME280;8943;51.110;-4.158;2022-08-19T06:18:38;101098.69;;;17.63;55.82
17649;BME280;8943;51.110;-4.158;2022-08-19T06:21:07;101101.78;;;17.68;55.85
17649;BME280;8943;51.110;-4.158;2022-08-19T06:23:35;101092.66;;;17.79;55.64
17649;BME280;8943;51.110;-4.158;2022-08-19T06:26:04;101094.75;;;17.85;55.64
17649;BME280;8943;51.110;-4.158;2022-08-19T06:28:32;101096.56;;;17.94;55.97
17649;BME280;8943;51.110;-4.158;2022-08-19T06:31:06;101097.34;;;18.04;55.93
17649;BME280;8943;51.110;-4.158;2022-08-19T06:33:34;101103.84;;;18.11;55.48
17649;BME280;8943;51.110;-4.158;2022-08-19T06:36:03;101110.53;;;18.25;55.74
17649;BME280;8943;51.110;-4.158;2022-08-19T06:38:32;101106.44;;;18.39;55.84
17649;BME280;8943;51.110;-4.158;2022-08-19T06:41:02;101110.63;;;18.51;55.69
17649;BME280;8943;51.110;-4.158;2022-08-19T06:43:33;101119.19;;;18.64;55.72
17649;BME280;8943;51.110;-4.158;2022-08-19T06:46:10;101119.34;;;18.81;55.67
17649;BME280;8943;51.110;-4.158;2022-08-19T06:48:40;101116.75;;;18.97;55.64
17649;BME280;8943;51.110;-4.158;2022-08-19T06:51:12;101126.22;;;19.19;55.57
17649;BME280;8943;51.110;-4.158;2022-08-19T06:53:46;101121.44;;;19.39;55.48
17649;BME280;8943;51.110;-4.158;2022-08-19T06:56:16;101126.59;;;19.58;55.47
17649;BME280;8943;51.110;-4.158;2022-08-19T06:58:45;101126.69;;;19.74;55.47
17649;BME280;8943;51.110;-4.158;2022-08-19T07:01:14;101137.56;;;19.91;55.11
17649;BME280;8943;51.110;-4.158;2022-08-19T07:03:42;101123.44;;;20.13;55.20
17649;BME280;8943;51.110;-4.158;2022-08-19T07:06:14;101129.59;;;20.40;55.23
17649;BME280;8943;51.110;-4.158;2022-08-19T07:09:06;101133.03;;;20.66;55.02
17649;BME280;8943;51.110;-4.158;2022-08-19T07:11:35;101132.53;;;20.87;55.03
17649;BME280;8943;51.110;-4.158;2022-08-19T07:14:03;101145.91;;;21.05;54.70
17649;BME280;8943;51.110;-4.158;2022-08-19T07:16:45;101142.47;;;21.27;54.37
17649;BME280;8943;51.110;-4.158;2022-08-19T07:19:13;101147.06;;;21.43;54.21
17649;BME280;8943;51.110;-4.158;2022-08-19T07:21:47;101151.59;;;21.59;54.03
17649;BME280;8943;51.110;-4.158;2022-08-19T07:24:17;101148.16;;;21.73;53.63
17649;BME280;8943;51.110;-4.158;2022-08-19T07:26:46;101158.09;;;21.89;53.59
17649;BME280;8943;51.110;-4.158;2022-08-19T07:29:19;101157.03;;;21.98;53.69
17649;BME280;8943;51.110;-4.158;2022-08-19T07:31:54;101164.31;;;22.06;53.57
17649;BME280;8943;51.110;-4.158;2022-08-19T07:34:27;101166.84;;;22.16;53.31
17649;BME280;8943;51.110;-4.158;2022-08-19T07:36:56;101171.00;;;22.26;53.11
17649;BME280;8943;51.110;-4.158;2022-08-19T07:39:30;101173.34;;;22.29;52.84
17649;BME280;8943;51.110;-4.158;2022-08-19T07:42:00;101169.94;;;22.35;52.90
17649;BME280;8943;51.110;-4.158;2022-08-19T07:44:28;101160.69;;;22.45;52.87
17649;BME280;8943;51.110;-4.158;2022-08-19T07:46:57;101163.19;;;22.54;52.86
17649;BME280;8943;51.110;-4.158;2022-08-19T07:49:26;101167.19;;;22.67;52.40
17649;BME280;8943;51.110;-4.158;2022-08-19T07:51:58;101182.09;;;22.71;52.41
17649;BME280;8943;51.110;-4.158;2022-08-19T07:54:31;101179.19;;;22.72;52.19
17649;BME280;8943;51.110;-4.158;2022-08-19T07:57:01;101188.31;;;22.79;51.72
17649;BME280;8943;51.110;-4.158;2022-08-19T07:59:30;101189.47;;;22.85;51.25
17649;BME280;8943;51.110;-4.158;2022-08-19T08:01:59;101196.25;;;22.89;50.67
17649;BME280;8943;51.110;-4.158;2022-08-19T08:04:28;101195.94;;;22.84;50.23
17649;BME280;8943;51.110;-4.158;2022-08-19T08:07:13;101203.84;;;22.71;49.80
17649;BME280;8943;51.110;-4.158;2022-08-19T08:10:03;101198.31;;;22.79;50.06
17649;BME280;8943;51.110;-4.158;2022-08-19T08:12:39;101204.53;;;22.87;50.20
17649;BME280;8943;51.110;-4.158;2022-08-19T08:15:23;101217.69;;;23.07;49.55
17649;BME280;8943;51.110;-4.158;2022-08-19T08:17:51;101216.28;;;23.11;49.40
17649;BME280;8943;51.110;-4.158;2022-08-19T08:20:20;101203.56;;;23.26;49.65
17649;BME280;8943;51.110;-4.158;2022-08-19T08:22:48;101210.72;;;23.42;49.13
17649;BME280;8943;51.110;-4.158;2022-08-19T08:25:35;101216.56;;;23.54;48.98
17649;BME280;8943;51.110;-4.158;2022-08-19T08:28:04;101218.03;;;23.64;48.45
17649;BME280;8943;51.110;-4.158;2022-08-19T08:30:37;101220.84;;;23.71;47.96
17649;BME280;8943;51.110;-4.158;2022-08-19T08:33:11;101224.88;;;23.75;47.57
17649;BME280;8943;51.110;-4.158;2022-08-19T08:35:40;101232.28;;;23.81;47.72
17649;BME280;8943;51.110;-4.158;2022-08-19T08:38:09;101222.34;;;23.88;47.54
17649;BME280;8943;51.110;-4.158;2022-08-19T08:40:44;101238.88;;;24.02;47.03
17649;BME280;8943;51.110;-4.158;2022-08-19T08:43:23;101239.81;;;24.09;47.37
17649;BME280;8943;51.110;-4.158;2022-08-19T08:46:00;101232.47;;;24.09;46.24
17649;BME280;8943;51.110;-4.158;2022-08-19T08:48:37;101239.25;;;23.99;45.78
17649;BME280;8943;51.110;-4.158;2022-08-19T08:51:12;101240.56;;;23.88;45.69
17649;BME280;8943;51.110;-4.158;2022-08-19T08:53:47;101238.03;;;23.86;45.59
17649;BME280;8943;51.110;-4.158;2022-08-19T08:56:23;101239.81;;;23.79;45.64
17649;BME280;8943;51.110;-4.158;2022-08-19T08:58:58;101239.31;;;23.76;45.48
17649;BME280;8943;51.110;-4.158;2022-08-19T09:01:28;101237.84;;;23.73;45.80
17649;BME280;8943;51.110;-4.158;2022-08-19T09:03:56;101241.59;;;23.72;45.68
17649;BME280;8943;51.110;-4.158;2022-08-19T09:06:36;101232.28;;;23.67;45.39
17649;BME280;8943;51.110;-4.158;2022-08-19T09:09:13;101245.03;;;23.81;45.79
17649;BME280;8943;51.110;-4.158;2022-08-19T09:11:56;101249.75;;;23.87;45.94
17649;BME280;8943;51.110;-4.158;2022-08-19T09:14:37;101247.88;;;23.87;45.11
17649;BME280;8943;51.110;-4.158;2022-08-19T09:17:18;101245.53;;;23.84;45.10
17649;BME280;8943;51.110;-4.158;2022-08-19T09:19:50;101239.03;;;23.85;44.71
17649;BME280;8943;51.110;-4.158;2022-08-19T09:22:19;101242.72;;;23.93;44.83
17649;BME280;8943;51.110;-4.158;2022-08-19T09:24:54;101249.78;;;24.02;45.11
17649;BME280;8943;51.110;-4.158;2022-08-19T09:27:26;101236.44;;;24.07;44.80
17649;BME280;8943;51.110;-4.158;2022-08-19T09:30:14;101237.34;;;24.14;44.66
17649;BME280;8943;51.110;-4.158;2022-08-19T09:32:46;101253.97;;;24.19;44.27
17649;BME280;8943;51.110;-4.158;2022-08-19T09:35:19;101251.63;;;24.16;44.22
17649;BME280;8943;51.110;-4.158;2022-08-19T09:37:50;101250.31;;;24.12;44.08
17649;BME280;8943;51.110;-4.158;2022-08-19T09:40:25;101244.75;;;24.05;43.89
17649;BME280;8943;51.110;-4.158;2022-08-19T09:42:57;101246.66;;;24.05;43.67
17649;BME280;8943;51.110;-4.158;2022-08-19T09:45:38;101238.69;;;24.03;43.58
17649;BME280;8943;51.110;-4.158;2022-08-19T09:48:06;101250.13;;;23.99;43.74
17649;BME280;8943;51.110;-4.158;2022-08-19T09:50:37;101249.09;;;24.00;43.03
17649;BME280;8943;51.110;-4.158;2022-08-19T09:53:19;101241.75;;;24.00;43.42
17649;BME280;8943;51.110;-4.158;2022-08-19T09:55:51;101257.66;;;24.11;42.91
17649;BME280;8943;51.110;-4.158;2022-08-19T09:58:21;101252.94;;;24.20;42.16
17649;BME280;8943;51.110;-4.158;2022-08-19T10:00:54;101230.97;;;24.22;41.67
17649;BME280;8943;51.110;-4.158;2022-08-19T10:03:23;101244.47;;;24.15;41.42
17649;BME280;8943;51.110;-4.158;2022-08-19T10:05:57;101241.75;;;24.00;41.08
17649;BME280;8943;51.110;-4.158;2022-08-19T10:08:27;101237.44;;;23.91;41.79
17649;BME280;8943;51.110;-4.158;2022-08-19T10:10:56;101241.13;;;23.83;41.89
17649;BME280;8943;51.110;-4.158;2022-08-19T10:13:47;101244.03;;;23.82;42.05
17649;BME280;8943;51.110;-4.158;2022-08-19T10:16:17;101262.91;;;23.83;42.08
17649;BME280;8943;51.110;-4.158;2022-08-19T10:18:46;101270.78;;;23.78;42.19
17649;BME280;8943;51.110;-4.158;2022-08-19T10:21:16;101261.72;;;23.63;41.49
17649;BME280;8943;51.110;-4.158;2022-08-19T10:23:48;101263.47;;;23.56;41.60
17649;BME280;8943;51.110;-4.158;2022-08-19T10:26:20;101269.72;;;23.42;41.96
17649;BME280;8943;51.110;-4.158;2022-08-19T10:28:54;101260.63;;;23.34;41.95
17649;BME280;8943;51.110;-4.158;2022-08-19T10:31:25;101273.22;;;23.27;42.00
17649;BME280;8943;51.110;-4.158;2022-08-19T10:34:14;101261.06;;;23.23;42.04
17649;BME280;8943;51.110;-4.158;2022-08-19T10:36:53;101275.66;;;23.22;42.36
17649;BME280;8943;51.110;-4.158;2022-08-19T10:39:27;101266.00;;;23.20;41.88
17649;BME280;8943;51.110;-4.158;2022-08-19T10:41:58;101271.19;;;23.29;42.20
17649;BME280;8943;51.110;-4.158;2022-08-19T10:44:27;101277.97;;;23.33;42.00
17649;BME280;8943;51.110;-4.158;2022-08-19T10:46:58;101275.34;;;23.40;41.38
17649;BME280;8943;51.110;-4.158;2022-08-19T10:49:27;101278.16;;;23.47;41.78
17649;BME280;8943;51.110;-4.158;2022-08-19T10:51:56;101266.66;;;23.59;42.02
17649;BME280;8943;51.110;-4.158;2022-08-19T10:54:45;101274.97;;;23.81;42.25
17649;BME280;8943;51.110;-4.158;2022-08-19T10:57:34;101269.56;;;24.10;41.26
17649;BME280;8943;51.110;-4.158;2022-08-19T11:00:24;101266.44;;;24.28;41.13
17649;BME280;8943;51.110;-4.158;2022-08-19T11:02:53;101284.69;;;24.43;40.76
17649;BME280;8943;51.110;-4.158;2022-08-19T11:05:22;101278.75;;;24.39;40.17
17649;BME280;8943;51.110;-4.158;2022-08-19T11:07:50;101276.31;;;24.29;40.44
17649;BME280;8943;51.110;-4.158;2022-08-19T11:10:19;101289.19;;;24.21;41.12
17649;BME280;8943;51.110;-4.158;2022-08-19T11:12:48;101288.44;;;24.12;42.30
17649;BME280;8943;51.110;-4.158;2022-08-19T11:15:21;101292.38;;;23.95;42.41
17649;BME280;8943;51.110;-4.158;2022-08-19T11:17:52;101281.25;;;23.81;42.78
17649;BME280;8943;51.110;-4.158;2022-08-19T11:20:21;101282.75;;;23.69;43.43
17649;BME280;8943;51.110;-4.158;2022-08-19T11:22:51;101281.84;;;23.77;43.42
17649;BME280;8943;51.110;-4.158;2022-08-19T11:25:20;101279.13;;;23.77;43.29
17649;BME280;8943;51.110;-4.158;2022-08-19T11:27:48;101283.34;;;23.79;42.68
17649;BME280;8943;51.110;-4.158;2022-08-19T11:30:19;101290.59;;;23.87;43.13
17649;BME280;8943;51.110;-4.158;2022-08-19T11:32:47;101285.31;;;23.85;42.72
17649;BME280;8943;51.110;-4.158;2022-08-19T11:35:17;101277.16;;;23.85;43.09
17649;BME280;8943;51.110;-4.158;2022-08-19T11:37:46;101290.75;;;23.85;42.98
17649;BME280;8943;51.110;-4.158;2022-08-19T11:40:14;101299.31;;;23.82;42.97
17649;BME280;8943;51.110;-4.158;2022-08-19T11:42:42;101288.44;;;23.82;42.45
17649;BME280;8943;51.110;-4.158;2022-08-19T11:45:24;101294.31;;;23.86;41.55
17649;BME280;8943;51.110;-4.158;2022-08-19T11:47:52;101289.00;;;23.93;41.70
17649;BME280;8943;51.110;-4.158;2022-08-19T11:50:23;101293.69;;;23.99;41.57
17649;BME280;8943;51.110;-4.158;2022-08-19T11:52:54;101297.72;;;24.03;40.53
17649;BME280;8943;51.110;-4.158;2022-08-19T11:55:22;101307.38;;;24.05;40.60
17649;BME280;8943;51.110;-4.158;2022-08-19T11:57:51;101291.25;;;24.04;40.01
17649;BME280;8943;51.110;-4.158;2022-08-19T12:00:19;101299.41;;;24.04;39.95
17649;BME280;8943;51.110;-4.158;2022-08-19T12:02:48;101296.69;;;24.04;40.46
17649;BME280;8943;51.110;-4.158;2022-08-19T12:05:16;101296.34;;;24.07;40.35
17649;BME280;8943;51.110;-4.158;2022-08-19T12:07:46;101293.88;;;24.12;40.56
17649;BME280;8943;51.110;-4.158;2022-08-19T12:10:14;101307.03;;;24.23;40.85
17649;BME280;8943;51.110;-4.158;2022-08-19T12:12:45;101292.91;;;24.34;40.09
17649;BME280;8943;51.110;-4.158;2022-08-19T12:15:24;101307.31;;;24.43;40.53
17649;BME280;8943;51.110;-4.158;2022-08-19T12:18:04;101298.50;;;24.56;40.03
17649;BME280;8943;51.110;-4.158;2022-08-19T12:20:34;101307.41;;;24.64;39.47
17649;BME280;8943;51.110;-4.158;2022-08-19T12:23:05;101306.06;;;24.75;39.09
17649;BME280;8943;51.110;-4.158;2022-08-19T12:25:33;101292.41;;;24.90;39.29
17649;BME280;8943;51.110;-4.158;2022-08-19T12:28:02;101298.41;;;25.22;39.48
17649;BME280;8943;51.110;-4.158;2022-08-19T12:30:30;101306.44;;;25.51;39.02
17649;BME280;8943;51.110;-4.158;2022-08-19T12:32:59;101313.00;;;25.78;38.31
17649;BME280;8943;51.110;-4.158;2022-08-19T12:35:27;101304.50;;;25.94;37.84
17649;BME280;8943;51.110;-4.158;2022-08-19T12:37:57;101297.03;;;26.10;37.83
17649;BME280;8943;51.110;-4.158;2022-08-19T12:40:28;101316.69;;;26.27;nan
17649;BME280;8943;51.110;-4.158;2022-08-19T12:42:56;101321.06;;;26.21;36.74
17649;BME280;8943;51.110;-4.158;2022-08-19T12:45:25;101310.69;;;26.10;36.57
17649;BME280;8943;51.110;-4.158;2022-08-19T12:47:53;101323.47;;;26.03;36.89
17649;BME280;8943;51.110;-4.158;2022-08-19T12:50:22;101319.00;;;25.95;37.04
17649;BME280;8943;51.110;-4.158;2022-08-19T12:52:50;101325.47;;;25.87;37.46
17649;BME280;8943;51.110;-4.158;2022-08-19T12:55:19;101319.31;;;25.79;37.50
17649;BME280;8943;51.110;-4.158;2022-08-19T12:57:48;101328.19;;;25.66;37.84
17649;BME280;8943;51.110;-4.158;2022-08-19T13:00:19;101317.94;;;25.68;38.29
17649;BME280;8943;51.110;-4.158;2022-08-19T13:02:50;101302.84;;;25.72;37.27
17649;BME280;8943;51.110;-4.158;2022-08-19T13:05:21;101315.38;;;25.88;35.95
17649;BME280;8943;51.110;-4.158;2022-08-19T13:07:51;101313.97;;;25.99;36.69
17649;BME280;8943;51.110;-4.158;2022-08-19T13:10:24;101310.75;;;26.16;36.05
17649;BME280;8943;51.110;-4.158;2022-08-19T13:12:54;101322.50;;;26.17;35.74
17649;BME280;8943;51.110;-4.158;2022-08-19T13:15:23;101316.59;;;26.13;36.02
17649;BME280;8943;51.110;-4.158;2022-08-19T13:17:53;101326.06;;;26.11;35.87